Time;durP1;ratioP1;P1;durP2;ratioP2;P2;SDS_P1;SDS_P2;PMS_P1;PMS_P2;Temp;Humidity;BMP_temperature;BMP_pressure;BME280_temperature;BME280_humidity;BME280_pressure;Samples;Min_cycle;Max_cycle;Signal;HPM_P1;HPM_P2
2021/12/04 00:00:23;;;;;;;5.37;3.47;;;7.20;55.40;;;;;;5077912;28;20460;-84
2021/12/04 00:02:51;;;;;;;3.90;2.80;;;7.10;55.40;;;;;;5059866;28;20467;-82
2021/12/04 00:05:19;;;;;;;5.90;3.00;;;7.20;55.40;;;;;;5060163;28;20467;-85
2021/12/04 00:07:47;;;;;;;3.90;2.93;;;7.40;55.50;;;;;;5077243;28;20930;-82
2021/12/04 00:10:17;;;;;;;6.00;3.50;;;7.40;55.30;;;;;;5060923;28;20469;-85
2021/12/04 00:12:46;;;;;;;4.70;3.10;;;7.40;55.20;;;;;;5041862;28;20459;-86
2021/12/04 00:15:13;;;;;;;4.50;3.17;;;7.50;55.30;;;;;;5055572;28;20468;-86
2021/12/04 00:17:40;;;;;;;4.80;3.70;;;7.50;54.90;;;;;;5073089;28;22667;-85
2021/12/04 00:20:08;;;;;;;7.20;3.47;;;7.40;55.10;;;;;;5071719;28;20514;-85
2021/12/04 00:22:35;;;;;;;4.90;2.60;;;7.30;55.30;;;;;;5052688;28;20463;-85
2021/12/04 00:25:03;;;;;;;4.30;3.20;;;7.20;55.10;;;;;;5041467;28;20492;-85
2021/12/04 00:27:30;;;;;;;4.70;3.10;;;7.00;55.60;;;;;;5059021;28;20459;-86
2021/12/04 00:29:58;;;;;;;3.13;2.80;;;7.20;55.80;;;;;;5045886;28;20444;-85
2021/12/04 00:32:29;;;;;;;3.20;2.83;;;7.30;55.70;;;;;;5072736;28;20973;-85
2021/12/04 00:35:07;;;;;;;3.00;2.70;;;7.30;55.00;;;;;;5071913;28;20459;-85
2021/12/04 00:51:28;;;;;;;7.60;3.90;;;7.60;55.20;;;;;;5068333;28;20448;-85
2021/12/04 00:53:55;;;;;;;5.40;4.20;;;7.30;54.80;;;;;;5042393;28;20448;-83
2021/12/04 00:56:22;;;;;;;9.10;4.37;;;7.30;55.00;;;;;;5071677;28;21460;-85
2021/12/04 00:58:49;;;;;;;6.97;5.30;;;7.20;55.20;;;;;;5055940;28;21128;-86
2021/12/04 01:01:19;;;;;;;7.83;4.80;;;7.10;55.60;;;;;;5032062;28;20448;-85
2021/12/04 01:03:46;;;;;;;5.73;3.70;;;7.30;56.00;;;;;;5068997;28;20471;-85
2021/12/04 01:06:14;;;;;;;10.30;4.77;;;7.40;55.90;;;;;;5044559;28;20472;-86
2021/12/04 01:08:41;;;;;;;7.03;4.40;;;7.50;55.80;;;;;;5075783;28;20473;-86
2021/12/04 01:11:08;;;;;;;7.07;4.60;;;7.70;56.00;;;;;;5071247;28;20887;-85
2021/12/04 01:13:35;;;;;;;5.23;4.30;;;7.70;55.90;;;;;;5059344;28;21024;-86
2021/12/04 01:16:03;;;;;;;7.53;4.47;;;7.80;55.70;;;;;;5061829;28;22001;-85
2021/12/04 01:18:31;;;;;;;11.90;5.27;;;7.80;55.80;;;;;;5054156;28;20455;-85
2021/12/04 01:20:59;;;;;;;4.37;3.90;;;7.80;55.70;;;;;;5056410;28;20468;-85
2021/12/04 01:23:26;;;;;;;6.80;4.90;;;7.80;55.70;;;;;;5073638;28;20460;-85
2021/12/04 01:25:53;;;;;;;7.60;4.43;;;7.90;55.70;;;;;;5061749;28;20476;-85
2021/12/04 01:28:20;;;;;;;8.37;5.17;;;7.90;55.70;;;;;;5071729;28;20460;-86
2021/12/04 01:30:47;;;;;;;5.90;4.30;;;7.90;55.80;;;;;;5074530;28;20523;-86
2021/12/04 01:33:14;;;;;;;4.70;3.90;;;7.90;55.70;;;;;;5041493;28;20475;-85
2021/12/04 01:35:42;;;;;;;10.43;4.10;;;7.90;55.80;;;;;;5042674;28;21137;-86
2021/12/04 01:38:10;;;;;;;7.60;4.47;;;7.90;55.60;;;;;;5056361;28;20452;-85
2021/12/04 01:40:37;;;;;;;7.43;4.23;;;7.70;55.10;;;;;;5055398;28;20460;-85
2021/12/04 01:43:05;;;;;;;5.00;3.93;;;7.60;55.40;;;;;;5045276;28;20464;-85
2021/12/04 01:45:32;;;;;;;5.50;3.83;;;7.50;55.70;;;;;;5077792;28;20476;-85
2021/12/04 01:48:00;;;;;;;8.77;3.90;;;7.50;55.50;;;;;;5077696;28;20468;-84
2021/12/04 01:50:28;;;;;;;4.17;3.63;;;7.60;55.50;;;;;;5047580;28;20441;-85
2021/12/04 01:52:57;;;;;;;4.17;3.20;;;7.60;55.50;;;;;;5063466;28;20563;-84
2021/12/04 01:55:25;;;;;;;3.40;2.73;;;7.70;55.50;;;;;;5072169;28;20525;-86
2021/12/04 01:57:52;;;;;;;10.73;4.30;;;7.70;55.40;;;;;;5040837;28;20440;-85
2021/12/04 02:00:19;;;;;;;3.10;2.57;;;7.70;55.50;;;;;;5078875;28;20463;-85
2021/12/04 02:02:46;;;;;;;5.87;2.97;;;7.70;55.40;;;;;;5068426;28;20455;-85
2021/12/04 02:05:13;;;;;;;3.57;3.10;;;7.60;55.10;;;;;;5063551;28;21276;-86
2021/12/04 02:07:40;;;;;;;3.93;3.10;;;7.40;55.30;;;;;;5081337;28;20477;-85
2021/12/04 02:10:10;;;;;;;3.30;2.67;;;7.50;55.60;;;;;;5053874;28;20518;-85
2021/12/04 02:12:38;;;;;;;3.87;3.57;;;7.50;55.50;;;;;;5064397;28;21204;-85
2021/12/04 02:15:06;;;;;;;3.40;3.03;;;7.50;55.30;;;;;;5068145;28;20442;-85
2021/12/04 02:17:33;;;;;;;3.73;3.33;;;7.60;55.60;;;;;;5062198;28;20456;-85
2021/12/04 02:20:00;;;;;;;3.93;3.27;;;7.60;55.20;;;;;;5063218;28;20460;-85
2021/12/04 02:22:28;;;;;;;5.30;2.93;;;7.60;55.40;;;;;;5063600;28;20471;-85
2021/12/04 02:24:55;;;;;;;4.00;3.17;;;7.60;56.10;;;;;;5050157;28;20506;-86
2021/12/04 02:27:22;;;;;;;4.73;3.17;;;7.60;55.90;;;;;;5068296;28;20459;-85
2021/12/04 02:29:49;;;;;;;6.30;2.83;;;7.60;55.60;;;;;;5065373;28;20466;-85
2021/12/04 02:32:20;;;;;;;5.13;3.20;;;7.60;55.60;;;;;;5078489;28;20454;-86
2021/12/04 02:34:47;;;;;;;6.23;3.57;;;7.60;55.90;;;;;;5076485;28;20457;-85
2021/12/04 02:37:15;;;;;;;5.50;4.00;;;7.70;55.90;;;;;;5082975;28;20460;-85
2021/12/04 02:39:45;;;;;;;4.10;2.60;;;7.70;55.90;;;;;;5085684;28;20454;-85
2021/12/04 02:42:21;;;;;;;5.47;3.80;;;7.70;55.80;;;;;;5071655;28;20459;-86
2021/12/04 02:44:49;;;;;;;4.00;3.37;;;7.70;55.80;;;;;;5065969;28;20941;-86
2021/12/04 02:47:16;;;;;;;4.97;3.10;;;7.70;55.80;;;;;;5082669;28;20462;-85
2021/12/04 02:49:43;;;;;;;5.17;3.73;;;7.60;55.80;;;;;;5052473;28;20447;-86
2021/12/04 02:52:12;;;;;;;6.70;3.90;;;7.50;56.30;;;;;;5053018;28;20455;-85
2021/12/04 02:54:40;;;;;;;5.00;3.37;;;7.40;56.50;;;;;;5055747;28;20822;-86
2021/12/04 02:57:12;;;;;;;2.90;2.63;;;7.40;56.60;;;;;;5048154;28;20538;-85
2021/12/04 02:59:40;;;;;;;4.90;3.30;;;7.40;56.70;;;;;;5051072;28;21214;-85
2021/12/04 03:02:14;;;;;;;7.07;4.67;;;7.30;56.90;;;;;;5078009;28;20447;-85
2021/12/04 03:04:42;;;;;;;4.90;3.47;;;7.40;56.90;;;;;;5055732;28;20510;-86
2021/12/04 03:07:08;;;;;;;5.63;3.70;;;7.30;57.10;;;;;;5046584;28;20514;-85
2021/12/04 03:09:35;;;;;;;5.67;3.40;;;7.30;57.10;;;;;;5092847;28;20467;-87
2021/12/04 03:12:03;;;;;;;3.70;2.97;;;7.40;57.00;;;;;;5079970;28;20452;-86
2021/12/04 03:14:31;;;;;;;8.83;3.80;;;7.50;56.80;;;;;;5052338;28;20453;-86
2021/12/04 03:16:59;;;;;;;6.30;3.93;;;7.50;56.60;;;;;;5061477;28;20460;-85
2021/12/04 03:19:26;;;;;;;3.70;3.20;;;7.50;56.60;;;;;;5043107;28;20480;-86
2021/12/04 03:21:54;;;;;;;6.00;3.47;;;7.50;56.60;;;;;;5051292;28;20495;-86
2021/12/04 03:24:21;;;;;;;5.43;3.73;;;7.50;56.50;;;;;;5043055;28;20847;-85
2021/12/04 03:26:50;;;;;;;3.97;3.47;;;7.40;56.80;;;;;;5064245;28;20552;-86
2021/12/04 03:29:19;;;;;;;7.43;4.20;;;7.30;57.00;;;;;;5054160;28;20812;-86
2021/12/04 03:32:10;;;;;;;5.13;3.60;;;7.40;57.00;;;;;;5046572;28;20453;-86
2021/12/04 03:40:21;;;;;;;6.90;3.90;;;7.40;56.90;;;;;;5072399;28;20479;-85
2021/12/04 03:42:49;;;;;;;5.17;4.00;;;7.30;57.20;;;;;;5064808;28;20465;-85
2021/12/04 03:45:16;;;;;;;5.60;4.60;;;7.30;57.30;;;;;;5056676;28;20499;-85
2021/12/04 03:47:47;;;;;;;6.30;4.40;;;7.30;57.20;;;;;;5050686;28;20495;-86
2021/12/04 03:50:15;;;;;;;6.00;4.17;;;7.30;57.10;;;;;;5056625;28;20448;-85
2021/12/04 03:52:42;;;;;;;5.00;4.30;;;7.30;57.00;;;;;;5043499;28;20498;-85
2021/12/04 03:55:10;;;;;;;6.50;4.57;;;7.30;57.10;;;;;;5058520;28;20974;-86
2021/12/04 03:57:44;;;;;;;11.87;3.70;;;7.20;57.30;;;;;;5073900;28;20456;-86
2021/12/04 04:00:13;;;;;;;6.70;3.67;;;7.20;57.50;;;;;;5056823;28;20469;-86
2021/12/04 04:02:40;;;;;;;5.80;4.10;;;7.10;57.70;;;;;;5069892;28;20456;-86
2021/12/04 04:05:09;;;;;;;9.90;4.87;;;7.00;58.00;;;;;;5054110;28;20452;-86
2021/12/04 04:07:36;;;;;;;8.50;5.80;;;7.00;58.00;;;;;;5072858;28;20445;-86
2021/12/04 04:10:03;;;;;;;10.70;5.17;;;7.00;58.00;;;;;;5042341;28;20443;-83
2021/12/04 04:12:30;;;;;;;7.37;4.57;;;7.10;57.80;;;;;;5075547;28;20477;-85
2021/12/04 04:14:57;;;;;;;7.90;5.37;;;7.10;57.60;;;;;;5059397;28;20460;-85
2021/12/04 04:17:26;;;;;;;6.50;4.60;;;7.20;57.70;;;;;;5057787;28;20440;-85
2021/12/04 04:19:53;;;;;;;9.90;5.10;;;7.20;57.50;;;;;;5043346;28;20547;-84
2021/12/04 04:22:21;;;;;;;16.63;6.00;;;7.20;57.60;;;;;;5073764;28;20471;-83
2021/12/04 04:24:49;;;;;;;5.40;4.67;;;7.20;57.50;;;;;;5054839;28;20483;-85
2021/12/04 04:27:16;;;;;;;6.57;4.30;;;7.20;57.30;;;;;;5070238;28;20598;-84
2021/12/04 04:29:43;;;;;;;6.83;3.97;;;7.10;57.70;;;;;;5070440;28;20467;-85
2021/12/04 04:32:10;;;;;;;8.10;5.30;;;7.00;58.20;;;;;;5048045;28;20467;-85
2021/12/04 04:34:38;;;;;;;8.10;4.70;;;7.00;58.00;;;;;;5063700;28;20483;-84
2021/12/04 04:37:18;;;;;;;6.97;4.77;;;7.10;57.90;;;;;;5038595;28;20477;-84
2021/12/04 04:40:20;;;;;;;6.20;4.53;;;7.20;57.50;;;;;;5073263;28;20459;-85
2021/12/04 04:59:26;;;;;;;7.70;4.70;;;7.10;57.60;;;;;;5059003;28;20452;-83
2021/12/04 05:10:38;;;;;;;5.57;4.27;;;7.00;58.00;;;;;;5073533;28;20453;-82
2021/12/04 05:13:08;;;;;;;7.37;5.00;;;7.10;57.90;;;;;;5074467;28;20452;-83
2021/12/04 05:15:43;;;;;;;6.27;4.13;;;7.00;58.10;;;;;;5060642;28;20469;-84
2021/12/04 05:18:20;;;;;;;7.57;5.60;;;7.00;58.20;;;;;;5073429;28;20512;-84
2021/12/04 05:20:52;;;;;;;8.60;5.47;;;7.10;58.00;;;;;;5037963;28;20452;-84
2021/12/04 05:23:20;;;;;;;9.00;5.13;;;7.20;57.70;;;;;;5061699;28;20465;-84
2021/12/04 05:25:47;;;;;;;7.57;4.67;;;7.10;57.80;;;;;;5060612;28;20487;-84
2021/12/04 05:28:15;;;;;;;8.10;4.50;;;7.10;57.90;;;;;;5073433;28;20455;-85
2021/12/04 05:30:42;;;;;;;8.37;4.10;;;7.00;58.10;;;;;;5027367;28;20445;-84
2021/12/04 05:33:09;;;;;;;6.47;4.10;;;6.90;58.40;;;;;;5043952;28;20465;-85
2021/12/04 05:35:36;;;;;;;7.00;4.53;;;6.90;58.40;;;;;;5058842;28;20476;-85
2021/12/04 05:38:02;;;;;;;9.33;4.80;;;6.90;58.60;;;;;;5055570;28;20467;-84
2021/12/04 05:40:29;;;;;;;8.03;5.07;;;6.80;58.80;;;;;;5058548;28;20468;-83
2021/12/04 05:43:01;;;;;;;8.77;4.70;;;6.80;58.70;;;;;;5071837;28;20453;-85
2021/12/04 05:45:31;;;;;;;8.90;4.87;;;6.90;58.60;;;;;;5074275;28;20480;-85
2021/12/04 05:48:03;;;;;;;6.07;4.20;;;7.00;58.30;;;;;;5071940;28;20463;-85
2021/12/04 05:50:53;;;;;;;7.30;4.20;;;7.10;58.20;;;;;;5048945;28;20834;-85
2021/12/04 05:53:22;;;;;;;9.90;5.40;;;7.20;58.00;;;;;;5058479;28;20464;-85
2021/12/04 05:55:53;;;;;;;7.13;4.70;;;7.20;57.80;;;;;;5056923;28;20460;-85
2021/12/04 05:58:23;;;;;;;8.70;4.83;;;7.30;57.70;;;;;;5067537;28;21225;-83
2021/12/04 06:00:52;;;;;;;10.03;5.17;;;7.10;57.70;;;;;;5072699;28;20572;-85
2021/12/04 06:03:20;;;;;;;26.40;13.80;;;7.10;58.20;;;;;;5055867;28;21035;-85
2021/12/04 06:05:47;;;;;;;52.77;16.37;;;7.10;58.00;;;;;;5055202;28;20488;-84
2021/12/04 06:08:14;;;;;;;61.50;17.63;;;7.10;58.00;;;;;;5056852;28;20476;-84
2021/12/04 06:10:41;;;;;;;11.63;7.30;;;7.00;58.30;;;;;;5058111;28;20459;-85
2021/12/04 06:13:09;;;;;;;26.00;13.53;;;7.00;58.40;;;;;;5043051;28;20448;-85
2021/12/04 06:15:36;;;;;;;35.57;13.90;;;7.00;58.50;;;;;;5070799;28;20837;-85
2021/12/04 06:18:04;;;;;;;9.83;6.30;;;7.00;58.20;;;;;;5045644;28;20452;-85
2021/12/04 06:23:16;;;;;;;13.43;7.50;;;7.10;58.00;;;;;;5074046;28;21188;-85
2021/12/04 06:25:43;;;;;;;17.33;9.27;;;7.20;58.00;;;;;;5075048;28;20867;-84
2021/12/04 06:28:10;;;;;;;25.97;11.07;;;7.20;57.70;;;;;;5046948;28;20515;-85
2021/12/04 06:30:39;;;;;;;37.97;16.40;;;7.30;57.70;;;;;;5038343;28;21377;-85
2021/12/04 06:33:09;;;;;;;37.43;15.87;;;7.30;57.50;;;;;;5076621;28;20470;-84
2021/12/04 06:35:40;;;;;;;42.77;16.50;;;7.40;57.50;;;;;;5060276;28;20913;-84
2021/12/04 06:38:09;;;;;;;22.77;12.33;;;7.40;57.30;;;;;;5076191;28;21168;-84
2021/12/04 06:40:36;;;;;;;16.67;10.33;;;7.50;57.20;;;;;;5076187;28;20477;-85
2021/12/04 06:43:05;;;;;;;15.80;8.60;;;7.40;57.20;;;;;;5062032;28;20443;-85
2021/12/04 06:45:34;;;;;;;16.60;9.27;;;7.40;57.30;;;;;;5077617;28;20470;-85
2021/12/04 06:48:06;;;;;;;38.37;15.80;;;7.30;57.30;;;;;;5063555;28;20476;-84
2021/12/04 06:50:40;;;;;;;28.10;12.83;;;7.40;57.40;;;;;;5076222;28;20514;-84
2021/12/04 06:53:15;;;;;;;19.30;8.73;;;7.30;57.50;;;;;;5074706;28;20458;-84
2021/12/04 06:55:45;;;;;;;23.67;11.37;;;7.30;57.50;;;;;;5056327;28;20468;-84
2021/12/04 06:58:13;;;;;;;24.10;12.10;;;7.40;57.50;;;;;;5074751;28;20452;-83
2021/12/04 07:00:40;;;;;;;17.80;10.57;;;7.30;57.40;;;;;;5075265;28;22729;-84
2021/12/04 07:03:07;;;;;;;15.03;8.90;;;7.40;57.50;;;;;;5074240;28;20460;-82
2021/12/04 07:05:36;;;;;;;22.37;10.60;;;7.40;57.40;;;;;;5032457;28;20468;-84
2021/12/04 07:08:05;;;;;;;26.90;11.33;;;7.30;57.40;;;;;;5066003;28;20476;-84
2021/12/04 07:10:33;;;;;;;34.83;16.70;;;7.40;57.60;;;;;;5043102;28;20548;-84
2021/12/04 07:13:00;;;;;;;19.10;9.37;;;7.30;57.60;;;;;;5077065;28;20460;-84
2021/12/04 07:15:30;;;;;;;18.90;8.43;;;7.20;57.90;;;;;;5046385;28;20488;-84
2021/12/04 07:17:57;;;;;;;17.73;7.37;;;7.20;58.00;;;;;;5076225;28;20483;-84
2021/12/04 07:20:25;;;;;;;16.50;8.23;;;7.30;57.90;;;;;;5057518;28;20460;-84
2021/12/04 07:22:53;;;;;;;20.07;12.23;;;7.30;57.80;;;;;;5072418;28;20463;-84
2021/12/04 07:25:20;;;;;;;19.27;11.70;;;7.40;57.70;;;;;;5042163;28;20483;-81
2021/12/04 07:27:50;;;;;;;17.77;10.57;;;7.40;57.60;;;;;;5076420;28;20475;-84
2021/12/04 07:30:18;;;;;;;16.17;8.77;;;7.40;57.50;;;;;;5075661;28;20498;-84
2021/12/04 07:32:45;;;;;;;15.43;7.70;;;7.30;57.50;;;;;;5060595;28;20550;-81
2021/12/04 07:35:13;;;;;;;21.30;10.37;;;7.30;57.50;;;;;;5071742;28;20510;-84
2021/12/04 07:37:40;;;;;;;23.93;13.30;;;7.30;57.50;;;;;;5071960;28;20458;-84
2021/12/04 07:40:10;;;;;;;34.43;18.20;;;7.20;58.00;;;;;;5052877;28;20456;-83
2021/12/04 07:42:37;;;;;;;34.57;17.00;;;7.10;58.20;;;;;;5074961;28;20460;-81
2021/12/04 07:45:04;;;;;;;31.17;15.70;;;7.20;58.20;;;;;;5053604;28;20452;-83
2021/12/04 07:47:31;;;;;;;24.57;12.50;;;7.30;58.00;;;;;;5074461;28;20479;-83
2021/12/04 07:49:58;;;;;;;28.13;13.90;;;7.40;57.70;;;;;;5075857;28;20451;-82
2021/12/04 07:52:25;;;;;;;22.50;13.23;;;7.40;57.50;;;;;;5053606;28;20464;-83
2021/12/04 07:54:52;;;;;;;18.43;10.10;;;7.40;57.50;;;;;;5073723;28;20456;-83
2021/12/04 07:57:21;;;;;;;18.10;10.97;;;7.40;57.40;;;;;;5062355;28;21213;-83
2021/12/04 07:59:48;;;;;;;19.47;11.70;;;7.40;57.40;;;;;;5056562;28;20444;-84
2021/12/04 08:02:16;;;;;;;20.07;11.60;;;7.40;57.30;;;;;;5046203;28;20860;-84
2021/12/04 08:04:42;;;;;;;21.77;13.27;;;7.50;57.30;;;;;;5057756;28;20455;-84
2021/12/04 08:07:09;;;;;;;25.53;13.93;;;7.50;57.30;;;;;;5070842;28;20484;-82
2021/12/04 08:09:36;;;;;;;24.47;13.37;;;7.50;57.20;;;;;;5054643;28;20459;-83
2021/12/04 08:12:04;;;;;;;15.97;10.30;;;7.50;57.30;;;;;;5062430;28;20467;-83
2021/12/04 08:14:32;;;;;;;27.63;12.80;;;7.60;57.50;;;;;;5037530;28;21029;-84
2021/12/04 08:16:59;;;;;;;20.77;11.53;;;7.60;57.50;;;;;;5072458;28;20512;-83
2021/12/04 08:19:26;;;;;;;17.10;10.00;;;7.60;57.50;;;;;;5072109;28;20491;-83
2021/12/04 08:21:53;;;;;;;14.03;8.93;;;7.50;57.60;;;;;;5053323;28;20983;-81
2021/12/04 08:24:20;;;;;;;11.77;7.90;;;7.50;57.80;;;;;;5057323;28;21128;-83
2021/12/04 08:26:47;;;;;;;11.10;7.90;;;7.50;57.80;;;;;;5071822;28;20476;-82
2021/12/04 08:29:14;;;;;;;11.80;6.97;;;7.60;57.80;;;;;;5074392;28;20578;-83
2021/12/04 08:31:43;;;;;;;10.97;7.10;;;7.60;57.50;;;;;;5074267;28;20834;-82
2021/12/04 08:34:10;;;;;;;17.90;11.00;;;7.70;57.50;;;;;;5058259;28;20461;-81
2021/12/04 08:36:37;;;;;;;18.63;10.43;;;7.70;57.50;;;;;;5074281;28;20479;-82
2021/12/04 08:39:06;;;;;;;21.60;10.23;;;7.60;57.60;;;;;;5056460;28;20490;-82
2021/12/04 08:41:33;;;;;;;20.97;11.80;;;7.50;57.80;;;;;;5059125;28;20459;-82
2021/12/04 08:44:00;;;;;;;13.50;9.83;;;7.60;57.70;;;;;;5058873;28;20467;-83
2021/12/04 08:46:27;;;;;;;21.40;10.20;;;7.70;57.60;;;;;;5071026;28;20484;-83
2021/12/04 08:48:57;;;;;;;16.60;9.90;;;7.70;57.60;;;;;;5075123;28;20968;-83
2021/12/04 08:51:24;;;;;;;15.20;9.67;;;7.70;57.50;;;;;;5062582;28;20457;-82
2021/12/04 08:53:52;;;;;;;16.83;9.27;;;7.70;57.40;;;;;;5060043;28;20971;-82
2021/12/04 08:56:20;;;;;;;13.67;9.20;;;7.70;57.30;;;;;;5076316;28;20514;-82
2021/12/04 08:58:47;;;;;;;13.07;7.93;;;7.70;57.30;;;;;;5060615;28;20451;-83
2021/12/04 09:01:22;;;;;;;15.03;8.63;;;7.70;57.50;;;;;;5075210;28;20553;-82
2021/12/04 09:03:49;;;;;;;16.80;10.70;;;7.70;57.50;;;;;;5068766;28;20546;-82
2021/12/04 09:06:19;;;;;;;22.30;9.97;;;7.70;57.40;;;;;;5073254;28;20479;-82
2021/12/04 09:08:47;;;;;;;15.70;9.07;;;7.80;57.30;;;;;;5053693;28;20478;-82
2021/12/04 09:11:19;;;;;;;11.83;7.67;;;7.80;57.20;;;;;;5041353;28;20452;-83
2021/12/04 09:13:48;;;;;;;14.53;7.07;;;7.70;57.20;;;;;;5054259;28;20459;-83
2021/12/04 09:16:15;;;;;;;13.40;7.67;;;7.60;57.80;;;;;;5077388;28;20465;-83
2021/12/04 09:18:43;;;;;;;14.50;7.30;;;7.60;57.90;;;;;;5072803;28;20523;-84
2021/12/04 09:21:11;;;;;;;15.63;7.80;;;7.60;57.90;;;;;;5070081;28;20471;-84
2021/12/04 09:23:44;;;;;;;10.17;7.33;;;7.60;58.00;;;;;;5045804;28;20467;-83
2021/12/04 09:26:14;;;;;;;16.90;8.67;;;7.60;58.20;;;;;;5061391;28;20500;-83
2021/12/04 09:28:49;;;;;;;15.63;8.57;;;7.50;58.20;;;;;;5075885;28;20473;-83
2021/12/04 09:31:28;;;;;;;19.07;9.30;;;7.50;58.40;;;;;;5071633;28;20444;-84
2021/12/04 09:34:09;;;;;;;17.40;10.43;;;7.60;58.50;;;;;;5024817;28;20554;-83
2021/12/04 09:37:02;;;;;;;16.87;8.93;;;7.60;58.50;;;;;;5054235;28;20476;-84
2021/12/04 10:01:54;;;;;;;16.33;10.07;;;7.60;58.80;;;;;;5055820;28;20982;-83
2021/12/04 10:13:11;;;;;;;13.60;8.40;;;7.90;58.10;;;;;;5027743;28;20440;-85
2021/12/04 10:16:02;;;;;;;10.33;7.17;;;7.90;58.20;;;;;;5050591;28;21363;-85
2021/12/04 10:21:52;;;;;;;12.93;7.80;;;7.90;58.10;;;;;;5055935;28;20488;-84
2021/12/04 10:24:45;;;;;;;10.47;6.83;;;7.90;58.10;;;;;;5069320;28;20451;-84
2021/12/04 10:33:11;;;;;;;13.03;8.63;;;8.10;58.00;;;;;;5060026;28;20535;-84
2021/12/04 10:35:38;;;;;;;14.40;8.17;;;8.00;58.20;;;;;;5082735;28;20475;-85
2021/12/04 10:38:08;;;;;;;13.53;9.10;;;7.90;58.40;;;;;;5075264;28;20455;-86
2021/12/04 10:40:39;;;;;;;14.37;10.30;;;7.90;58.50;;;;;;5074267;28;20447;-84
2021/12/04 10:43:11;;;;;;;18.23;9.13;;;8.00;58.10;;;;;;5075564;28;20455;-84
2021/12/04 10:45:42;;;;;;;12.20;8.87;;;8.00;58.10;;;;;;5076619;28;20482;-82
2021/12/04 10:48:15;;;;;;;18.00;9.87;;;8.00;58.10;;;;;;5076604;28;20954;-82
2021/12/04 10:50:48;;;;;;;22.50;10.80;;;8.10;58.00;;;;;;5059147;28;20446;-84
2021/12/04 10:53:22;;;;;;;18.60;11.50;;;8.00;58.80;;;;;;5076644;28;20487;-85
2021/12/04 10:55:53;;;;;;;24.83;12.93;;;8.00;58.50;;;;;;5059767;28;20474;-85
2021/12/04 10:58:49;;;;;;;25.27;12.90;;;8.10;58.40;;;;;;5075518;28;20974;-85
2021/12/04 11:04:22;;;;;;;24.43;13.07;;;8.10;58.40;;;;;;5046551;28;20544;-84
2021/12/04 11:21:14;;;;;;;24.93;12.10;;;8.20;58.20;;;;;;5074671;28;20461;-84
2021/12/04 11:26:47;;;;;;;29.27;13.00;;;8.10;58.30;;;;;;5049870;28;20492;-85
2021/12/04 11:43:18;;;;;;;22.40;12.63;;;8.10;58.80;;;;;;5073923;28;20464;-84
2021/12/04 11:46:00;;;;;;;18.63;10.13;;;8.00;58.90;;;;;;5057925;28;20556;-83
2021/12/04 11:48:29;;;;;;;22.23;12.63;;;8.10;58.90;;;;;;5039152;28;20479;-84
2021/12/04 11:50:57;;;;;;;27.10;13.13;;;8.10;59.70;;;;;;5070886;28;20462;-83
2021/12/04 11:53:25;;;;;;;20.63;11.30;;;8.10;58.80;;;;;;5069604;28;20468;-84
2021/12/04 11:55:52;;;;;;;23.23;12.33;;;8.10;58.80;;;;;;5055764;28;20471;-83
2021/12/04 11:58:22;;;;;;;22.00;10.13;;;8.10;58.90;;;;;;5062605;28;20463;-86
2021/12/04 12:00:49;;;;;;;23.83;10.57;;;8.10;58.60;;;;;;5073906;28;20459;-83
2021/12/04 12:03:20;;;;;;;17.13;9.97;;;8.10;58.30;;;;;;5060211;28;20456;-83
2021/12/04 12:05:50;;;;;;;19.60;11.73;;;8.10;58.20;;;;;;5053680;28;20577;-84
2021/12/04 12:08:28;;;;;;;18.50;10.40;;;8.10;58.40;;;;;;5056130;28;20478;-83
2021/12/04 12:10:58;;;;;;;15.83;8.80;;;8.20;58.40;;;;;;5074128;28;20449;-84
2021/12/04 12:13:28;;;;;;;17.70;9.17;;;8.20;58.20;;;;;;5056751;28;20455;-84
2021/12/04 12:16:06;;;;;;;15.80;10.23;;;8.20;58.50;;;;;;5076136;28;20491;-82
2021/12/04 12:18:44;;;;;;;19.03;9.40;;;8.20;58.60;;;;;;5077247;28;20439;-84
2021/12/04 12:21:15;;;;;;;21.03;11.37;;;8.10;58.90;;;;;;5064289;28;20959;-84
2021/12/04 12:27:05;;;;;;;23.70;11.47;;;8.00;59.30;;;;;;5057581;28;20483;-85
2021/12/04 12:32:40;;;;;;;28.93;15.10;;;8.00;59.10;;;;;;5045683;28;20557;-84
2021/12/04 12:37:53;;;;;;;18.20;10.30;;;8.10;59.20;;;;;;5074132;28;20588;-85
2021/12/04 12:40:28;;;;;;;23.23;10.70;;;8.20;59.00;;;;;;5054617;28;20531;-85
2021/12/04 12:42:55;;;;;;;20.17;11.37;;;8.20;58.60;;;;;;5072542;28;20440;-84
2021/12/04 12:45:25;;;;;;;19.17;12.70;;;8.20;58.70;;;;;;5055692;28;20480;-85
2021/12/04 12:47:54;;;;;;;21.80;11.50;;;8.10;59.20;;;;;;5074939;28;20480;-85
2021/12/04 12:50:34;;;;;;;17.43;10.83;;;8.10;59.30;;;;;;5070775;28;20990;-83
2021/12/04 12:53:04;;;;;;;20.50;10.97;;;8.10;59.70;;;;;;5059650;28;20460;-84
2021/12/04 12:55:35;;;;;;;20.10;11.90;;;8.10;59.60;;;;;;5074350;28;20472;-85
2021/12/04 12:58:20;;;;;;;19.23;11.40;;;8.20;59.30;;;;;;5073821;28;20432;-85
2021/12/04 13:11:58;;;;;;;29.30;12.47;;;8.20;59.60;;;;;;5075578;28;20940;-84
2021/12/04 13:14:27;;;;;;;40.47;21.67;;;8.20;59.70;;;;;;5043394;28;20443;-84
2021/12/04 13:17:02;;;;;;;43.93;22.87;;;8.20;59.70;;;;;;5038375;28;21243;-84
2021/12/04 13:19:29;;;;;;;30.60;15.77;;;8.30;59.30;;;;;;5073809;28;20525;-85
2021/12/04 13:21:59;;;;;;;31.80;16.90;;;8.30;59.00;;;;;;5071177;28;20448;-85
2021/12/04 13:24:31;;;;;;;21.30;12.10;;;8.30;59.10;;;;;;5072520;28;20948;-85
2021/12/04 13:29:42;;;;;;;22.77;11.97;;;8.40;59.10;;;;;;5071192;28;20483;-85
2021/12/04 13:32:11;;;;;;;20.50;11.97;;;8.40;59.10;;;;;;5055419;28;20447;-85
2021/12/04 13:34:40;;;;;;;16.90;11.03;;;8.40;59.00;;;;;;5073155;28;22332;-86
2021/12/04 13:37:09;;;;;;;17.70;12.17;;;8.40;59.10;;;;;;5045656;28;20471;-85
2021/12/04 13:39:37;;;;;;;18.33;12.53;;;8.20;59.60;;;;;;5047233;28;20548;-85
2021/12/04 13:42:06;;;;;;;19.63;11.37;;;8.20;59.60;;;;;;5059100;28;20540;-85
2021/12/04 13:44:37;;;;;;;18.77;9.20;;;8.30;59.30;;;;;;5076231;28;20527;-86
2021/12/04 13:47:07;;;;;;;17.23;10.83;;;8.40;62.00;;;;;;5066465;28;20472;-87
2021/12/04 13:49:47;;;;;;;19.17;11.47;;;8.50;63.30;;;;;;5076528;28;20533;-87
2021/12/04 13:52:15;;;;;;;16.60;10.40;;;8.60;62.30;;;;;;5068099;28;20443;-87
2021/12/04 13:54:46;;;;;;;17.17;10.27;;;8.70;61.70;;;;;;5058347;28;20447;-87
2021/12/04 13:57:16;;;;;;;31.93;12.33;;;8.70;60.70;;;;;;5061192;28;21575;-87
2021/12/04 13:59:43;;;;;;;19.30;12.60;;;8.80;60.20;;;;;;5060464;28;20498;-88
2021/12/04 14:02:20;;;;;;;19.83;11.17;;;8.80;59.60;;;;;;5057878;28;20482;-87
2021/12/04 14:04:56;;;;;;;21.90;10.90;;;8.80;59.40;;;;;;5067945;28;20456;-84
2021/12/04 14:07:23;;;;;;;21.53;12.10;;;8.70;59.20;;;;;;5073304;28;20482;-87
2021/12/04 14:09:50;;;;;;;23.37;12.20;;;8.70;58.90;;;;;;5058122;28;20497;-85
2021/12/04 14:12:19;;;;;;;23.00;11.87;;;8.70;58.70;;;;;;5040183;28;20460;-85
2021/12/04 14:14:46;;;;;;;24.40;11.60;;;8.70;58.50;;;;;;5061170;28;20451;-85
2021/12/04 14:17:16;;;;;;;23.93;11.57;;;8.70;58.50;;;;;;5065566;28;20468;-85
2021/12/04 14:19:45;;;;;;;28.53;13.43;;;8.60;58.70;;;;;;5075236;28;20473;-87
2021/12/04 14:22:15;;;;;;;20.40;12.30;;;8.60;58.70;;;;;;5064084;28;20440;-84
2021/12/04 14:24:47;;;;;;;18.57;11.30;;;8.60;58.60;;;;;;5075496;28;20939;-82
2021/12/04 14:27:20;;;;;;;18.73;11.30;;;8.60;58.60;;;;;;5072599;28;20508;-83
2021/12/04 14:29:50;;;;;;;18.70;10.87;;;8.60;58.80;;;;;;5072186;28;20468;-85
2021/12/04 14:32:22;;;;;;;20.40;11.53;;;8.60;58.70;;;;;;5077200;28;20463;-84
2021/12/04 14:34:55;;;;;;;18.97;11.43;;;8.60;58.80;;;;;;5065576;28;20463;-85
2021/12/04 14:37:22;;;;;;;22.13;12.80;;;8.50;58.70;;;;;;5075158;28;20518;-84
2021/12/04 14:39:51;;;;;;;21.83;11.67;;;8.50;58.80;;;;;;5058768;28;20487;-86
2021/12/04 14:42:23;;;;;;;20.73;11.40;;;8.50;59.20;;;;;;5069637;28;21048;-85
2021/12/04 14:44:52;;;;;;;22.90;13.17;;;8.40;59.00;;;;;;5071269;28;20819;-83
2021/12/04 14:47:21;;;;;;;22.03;13.70;;;8.50;59.00;;;;;;5053889;28;20859;-82
2021/12/04 14:49:51;;;;;;;21.67;12.70;;;8.50;59.10;;;;;;5058704;28;20473;-85
2021/12/04 14:52:20;;;;;;;19.03;10.67;;;8.50;59.10;;;;;;5072231;28;20460;-85
2021/12/04 14:54:49;;;;;;;25.20;15.67;;;8.40;59.30;;;;;;5074604;28;20468;-84
2021/12/04 14:57:21;;;;;;;17.13;11.57;;;8.30;59.10;;;;;;5050884;28;20569;-86
2021/12/04 14:59:59;;;;;;;17.87;11.40;;;8.20;59.40;;;;;;5034730;28;20453;-84
2021/12/04 15:02:27;;;;;;;16.47;9.90;;;8.00;59.90;;;;;;5065581;28;20457;-84
2021/12/04 15:04:54;;;;;;;19.33;12.23;;;8.00;59.80;;;;;;5042702;28;20451;-84
2021/12/04 15:07:22;;;;;;;34.73;16.00;;;7.90;60.10;;;;;;5072111;28;20484;-84
2021/12/04 15:09:49;;;;;;;28.00;11.47;;;7.40;61.10;;;;;;5061699;28;20479;-86
2021/12/04 15:12:30;;;;;;;22.30;14.67;;;7.40;62.10;;;;;;5057314;28;20463;-84
2021/12/04 15:15:02;;;;;;;23.17;13.10;;;7.50;62.40;;;;;;5058714;28;20470;-84
2021/12/04 15:17:30;;;;;;;21.03;12.97;;;7.60;62.20;;;;;;5042641;28;20855;-86
2021/12/04 15:20:02;;;;;;;17.57;10.90;;;7.60;61.40;;;;;;5073867;28;20454;-84
2021/12/04 15:22:33;;;;;;;18.27;11.40;;;7.40;61.60;;;;;;5071496;28;21047;-84